createdAt,value
2017-02-21T00:00:32.659Z,0
2017-02-21T00:01:32.622Z,0
2017-02-21T00:02:32.579Z,0
2017-02-21T00:03:32.567Z,0
2017-02-21T00:04:32.155Z,0
2017-02-21T00:05:32.144Z,0
2017-02-21T00:06:32.517Z,0
2017-02-21T00:07:32.502Z,0
2017-02-21T00:08:32.481Z,0
2017-02-21T00:09:32.442Z,0
2017-02-21T00:10:32.475Z,0
2017-02-21T00:11:32.414Z,0
2017-02-21T00:12:32.373Z,0
2017-02-21T00:13:32.396Z,0
2017-02-21T00:14:32.373Z,0
2017-02-21T00:15:32.373Z,0
2017-02-21T00:16:32.328Z,0
2017-02-21T00:17:32.332Z,0
2017-02-21T00:18:32.339Z,0
2017-02-21T00:19:31.879Z,0
2017-02-21T00:20:31.892Z,0
2017-02-21T00:21:32.267Z,0
2017-02-21T00:22:31.462Z,0
2017-02-21T00:23:31.809Z,0
2017-02-21T00:24:32.221Z,0
2017-02-21T00:25:32.162Z,0
2017-02-21T00:26:32.127Z,0
2017-02-21T00:27:32.119Z,0
2017-02-21T00:28:31.730Z,0
2017-02-21T00:29:32.085Z,0
2017-02-21T00:30:32.076Z,0
2017-02-21T00:31:31.729Z,0
2017-02-21T00:32:32.017Z,0
2017-02-21T00:33:32.039Z,0
2017-02-21T00:34:31.993Z,0
2017-02-21T00:35:31.999Z,0
2017-02-21T00:36:31.957Z,0
2017-02-21T00:37:31.923Z,0
2017-02-21T00:38:31.924Z,0
2017-02-21T00:39:31.896Z,0
2017-02-21T00:40:31.930Z,0
2017-02-21T00:41:31.858Z,0
2017-02-21T00:42:31.834Z,0
2017-02-21T00:43:31.815Z,0
2017-02-21T00:44:31.813Z,0
2017-02-21T00:45:31.793Z,0
2017-02-21T00:46:31.761Z,0
2017-02-21T00:47:31.747Z,0
2017-02-21T00:48:31.351Z,0
2017-02-21T00:49:31.306Z,0
2017-02-21T00:50:31.682Z,0
2017-02-21T00:51:31.656Z,0
2017-02-21T00:52:31.613Z,0
2017-02-21T00:53:31.686Z,0
2017-02-21T00:54:31.263Z,0
2017-02-21T00:55:31.594Z,0
2017-02-21T00:56:31.583Z,0
2017-02-21T00:57:31.548Z,0
2017-02-21T00:58:31.538Z,0
2017-02-21T00:59:31.513Z,0
2017-02-21T01:00:31.490Z,0
2017-02-21T01:01:31.078Z,0
2017-02-21T01:02:31.440Z,0
2017-02-21T01:03:31.066Z,0
2017-02-21T01:04:31.432Z,0
2017-02-21T01:05:31.369Z,0
2017-02-21T01:06:30.984Z,0
2017-02-21T01:07:31.361Z,0
2017-02-21T01:08:30.936Z,0
2017-02-21T01:09:30.539Z,0
2017-02-21T01:10:31.311Z,0
2017-02-21T01:11:31.271Z,0
2017-02-21T01:12:30.861Z,0
2017-02-21T01:13:31.245Z,0
2017-02-21T01:14:30.823Z,0
2017-02-21T01:15:30.791Z,0
2017-02-21T01:16:31.179Z,0
2017-02-21T01:17:30.784Z,0
2017-02-21T01:18:31.143Z,0
2017-02-21T01:19:30.764Z,0
2017-02-21T01:20:31.116Z,0
2017-02-21T01:21:30.693Z,0
2017-02-21T01:22:30.704Z,0
2017-02-21T01:23:31.025Z,0
2017-02-21T01:24:30.997Z,0
2017-02-21T01:25:31.032Z,0
2017-02-21T01:26:30.980Z,0
2017-02-21T01:27:30.948Z,0
2017-02-21T01:28:30.574Z,0
2017-02-21T01:29:30.935Z,0
2017-02-21T01:30:30.907Z,0
2017-02-21T01:31:30.893Z,0
2017-02-21T01:32:30.897Z,0
2017-02-21T01:33:30.447Z,0
2017-02-21T01:34:30.430Z,0
2017-02-21T01:35:30.431Z,0
2017-02-21T01:36:30.778Z,0
2017-02-21T01:37:30.769Z,0
2017-02-21T01:38:30.802Z,0
2017-02-21T01:39:30.740Z,0
2017-02-21T01:40:30.322Z,0
2017-02-21T01:41:30.693Z,0
2017-02-21T01:42:30.643Z,0
2017-02-21T01:43:30.247Z,0
2017-02-21T01:44:30.646Z,0
2017-02-21T01:45:30.613Z,0
2017-02-21T01:46:30.600Z,0
2017-02-21T01:47:30.533Z,0
2017-02-21T01:48:30.543Z,0
2017-02-21T01:49:30.178Z,0
2017-02-21T01:50:30.509Z,0
2017-02-21T01:51:30.110Z,0
2017-02-21T01:52:30.475Z,0
2017-02-21T01:53:30.444Z,0
2017-02-21T01:54:30.454Z,0
2017-02-21T01:55:30.417Z,0
2017-02-21T01:56:30.398Z,0
2017-02-21T01:57:29.982Z,0
2017-02-21T01:58:30.364Z,0
2017-02-21T01:59:30.354Z,0
2017-02-21T02:00:30.316Z,0
2017-02-21T02:01:30.325Z,0
2017-02-21T02:02:29.899Z,0
2017-02-21T02:03:30.266Z,0
2017-02-21T02:04:30.250Z,0
2017-02-21T02:05:29.834Z,0
2017-02-21T02:06:29.440Z,0
2017-02-21T02:07:30.199Z,0
2017-02-21T02:08:29.805Z,0
2017-02-21T02:09:29.770Z,0
2017-02-21T02:10:29.754Z,0
2017-02-21T02:11:29.729Z,0
2017-02-21T02:12:30.112Z,0
2017-02-21T02:13:30.087Z,0
2017-02-21T02:14:30.044Z,0
2017-02-21T02:15:29.663Z,0
2017-02-21T02:16:30.018Z,0
2017-02-21T02:17:30.036Z,0
2017-02-21T02:18:30.033Z,0
2017-02-21T02:19:29.989Z,0
2017-02-21T02:20:29.960Z,0
2017-02-21T02:21:29.940Z,0
2017-02-21T02:22:35.218Z,0
2017-02-21T02:23:29.905Z,0
2017-02-21T02:24:29.857Z,0
2017-02-21T02:25:29.843Z,0
2017-02-21T02:26:29.840Z,0
2017-02-21T02:27:35.182Z,0
2017-02-21T02:28:29.830Z,0
2017-02-21T02:29:29.805Z,0
2017-02-21T02:30:29.768Z,0
2017-02-21T02:31:29.737Z,0
2017-02-21T02:32:35.300Z,0
2017-02-21T02:33:29.717Z,0
2017-02-21T02:34:29.683Z,0
2017-02-21T02:35:29.686Z,0
2017-02-21T02:36:29.656Z,0
2017-02-21T02:37:35.205Z,0
2017-02-21T02:38:29.644Z,0
2017-02-21T02:39:29.610Z,0
2017-02-21T02:40:29.606Z,0
2017-02-21T02:41:29.544Z,0
2017-02-21T02:42:29.554Z,0
2017-02-21T02:43:29.509Z,0
2017-02-21T02:44:29.513Z,0
2017-02-21T02:45:29.485Z,0
2017-02-21T02:46:29.472Z,0
2017-02-21T02:47:29.446Z,0
2017-02-21T02:48:29.450Z,0
2017-02-21T02:49:29.403Z,0
2017-02-21T02:50:29.404Z,0
2017-02-21T02:51:29.402Z,0
2017-02-21T02:52:29.355Z,0
2017-02-21T02:53:29.346Z,0
2017-02-21T02:54:29.313Z,0
2017-02-21T02:55:29.312Z,0
2017-02-21T02:56:29.283Z,0
2017-02-21T02:57:29.265Z,0
2017-02-21T02:58:29.247Z,0
2017-02-21T02:59:29.235Z,0
2017-02-21T03:00:29.215Z,0
2017-02-21T03:01:28.801Z,0
2017-02-21T03:02:29.162Z,0
2017-02-21T03:03:29.163Z,0
2017-02-21T03:04:29.195Z,0
2017-02-21T03:05:29.142Z,0
2017-02-21T03:06:29.098Z,0
2017-02-21T03:07:29.098Z,0
2017-02-21T03:08:29.058Z,0
2017-02-21T03:09:29.081Z,0
2017-02-21T03:10:28.644Z,0
2017-02-21T03:11:29.011Z,0
2017-02-21T03:12:28.600Z,0
2017-02-21T03:13:28.970Z,0
2017-02-21T03:14:28.579Z,0
2017-02-21T03:15:28.552Z,0
2017-02-21T03:16:28.939Z,0
2017-02-21T03:17:28.904Z,0
2017-02-21T03:18:28.902Z,0
2017-02-21T03:19:28.506Z,0
2017-02-21T03:20:28.856Z,0
2017-02-21T03:21:28.452Z,0
2017-02-21T03:22:28.401Z,0
2017-02-21T03:23:28.791Z,0
2017-02-21T03:24:28.394Z,0
2017-02-21T03:25:28.385Z,0
2017-02-21T03:26:28.371Z,0
2017-02-21T03:27:28.336Z,0
2017-02-21T03:28:28.305Z,0
2017-02-21T03:29:28.683Z,0
2017-02-21T03:30:28.673Z,0
2017-02-21T03:31:28.676Z,0
2017-02-21T03:32:28.627Z,0
2017-02-21T03:33:28.619Z,0
2017-02-21T03:34:28.604Z,0
2017-02-21T03:35:28.569Z,0
2017-02-21T03:36:28.577Z,0
2017-02-21T03:37:28.539Z,0
2017-02-21T03:38:28.513Z,0
2017-02-21T03:39:28.488Z,0
2017-02-21T03:40:28.484Z,0
2017-02-21T03:41:28.485Z,0
2017-02-21T03:42:28.456Z,0
2017-02-21T03:43:28.455Z,0
2017-02-21T03:44:28.433Z,0
2017-02-21T03:45:28.382Z,0
2017-02-21T03:46:28.382Z,0
2017-02-21T03:47:28.362Z,0
2017-02-21T03:48:28.360Z,0
2017-02-21T03:49:28.356Z,0
2017-02-21T03:50:28.311Z,0
2017-02-21T03:51:28.307Z,0
2017-02-21T03:52:28.298Z,0
2017-02-21T03:53:28.276Z,0
2017-02-21T03:54:28.245Z,0
2017-02-21T03:55:28.223Z,0
2017-02-21T03:56:28.215Z,0
2017-02-21T03:57:28.179Z,0
2017-02-21T03:58:28.202Z,0
2017-02-21T03:59:28.156Z,0
2017-02-21T04:00:28.154Z,0
2017-02-21T04:01:28.131Z,0
2017-02-21T04:02:28.097Z,0
2017-02-21T04:03:28.086Z,0
2017-02-21T04:04:28.057Z,0
2017-02-21T04:05:27.677Z,0
2017-02-21T04:06:27.647Z,0
2017-02-21T04:07:27.977Z,0
2017-02-21T04:08:27.993Z,0
2017-02-21T04:09:27.959Z,0
2017-02-21T04:10:27.918Z,0
2017-02-21T04:11:27.538Z,0
2017-02-21T04:12:27.881Z,0
2017-02-21T04:13:27.912Z,0
2017-02-21T04:14:27.472Z,0
2017-02-21T04:15:27.856Z,0
2017-02-21T04:16:27.470Z,0
2017-02-21T04:17:27.437Z,0
2017-02-21T04:18:27.447Z,0
2017-02-21T04:19:27.787Z,0
2017-02-21T04:20:27.754Z,0
2017-02-21T04:21:27.753Z,0
2017-02-21T04:22:27.718Z,0
2017-02-21T04:23:27.721Z,0
2017-02-21T04:24:27.665Z,0
2017-02-21T04:25:27.654Z,0
2017-02-21T04:26:27.639Z,0
2017-02-21T04:27:27.637Z,0
2017-02-21T04:28:27.593Z,0
2017-02-21T04:29:27.582Z,0
2017-02-21T04:30:27.549Z,0
2017-02-21T04:31:27.552Z,0
2017-02-21T04:32:27.531Z,0
2017-02-21T04:33:27.506Z,0
2017-02-21T04:34:27.486Z,0
2017-02-21T04:35:27.482Z,0
2017-02-21T04:36:27.457Z,0
2017-02-21T04:37:27.414Z,0
2017-02-21T04:38:27.431Z,0
2017-02-21T04:39:27.415Z,0
2017-02-21T04:40:27.399Z,0
2017-02-21T04:41:27.358Z,0
2017-02-21T04:42:27.322Z,0
2017-02-21T04:43:27.337Z,0
2017-02-21T04:44:27.287Z,0
2017-02-21T04:45:27.304Z,0
2017-02-21T04:46:27.272Z,0
2017-02-21T04:47:27.260Z,0
2017-02-21T04:48:27.253Z,0
2017-02-21T04:49:27.198Z,0
2017-02-21T04:50:27.205Z,0
2017-02-21T04:51:27.186Z,0
2017-02-21T04:52:27.137Z,0
2017-02-21T04:53:27.126Z,0
2017-02-21T04:54:27.140Z,0
2017-02-21T04:55:27.102Z,0
2017-02-21T04:56:27.090Z,0
2017-02-21T04:57:27.093Z,0
2017-02-21T04:58:27.051Z,0
2017-02-21T04:59:27.043Z,0
2017-02-21T05:00:26.999Z,0
2017-02-21T05:01:26.973Z,0
2017-02-21T05:02:26.961Z,0
2017-02-21T05:03:26.960Z,0
2017-02-21T05:04:26.932Z,0
2017-02-21T05:05:26.896Z,0
2017-02-21T05:06:26.872Z,0
2017-02-21T05:07:26.881Z,0
2017-02-21T05:08:26.859Z,0
2017-02-21T05:09:26.848Z,0
2017-02-21T05:10:26.838Z,0
2017-02-21T05:11:26.806Z,0
2017-02-21T05:12:26.757Z,0
2017-02-21T05:13:26.759Z,0
2017-02-21T05:14:25.950Z,0
2017-02-21T05:15:26.727Z,0
2017-02-21T05:16:26.681Z,0
2017-02-21T05:17:26.304Z,0
2017-02-21T05:18:26.649Z,0
2017-02-21T05:19:26.675Z,0
2017-02-21T05:20:26.619Z,0
2017-02-21T05:21:26.610Z,0
2017-02-21T05:22:26.188Z,0
2017-02-21T05:23:26.578Z,0
2017-02-21T05:24:26.554Z,0
2017-02-21T05:25:26.562Z,0
2017-02-21T05:26:26.502Z,0
2017-02-21T05:27:26.090Z,0
2017-02-21T05:28:26.485Z,0
2017-02-21T05:29:26.420Z,0
2017-02-21T05:30:26.035Z,0
2017-02-21T05:31:26.411Z,0
2017-02-21T05:32:26.019Z,0
2017-02-21T05:33:25.962Z,0
2017-02-21T05:34:26.356Z,0
2017-02-21T05:35:26.321Z,0
2017-02-21T05:36:26.299Z,0
2017-02-21T05:37:26.288Z,0
2017-02-21T05:38:26.266Z,0
2017-02-21T05:39:26.238Z,0
2017-02-21T05:40:26.232Z,0
2017-02-21T05:41:26.232Z,0
2017-02-21T05:42:26.185Z,0
2017-02-21T05:43:26.217Z,0
2017-02-21T05:44:26.160Z,0
2017-02-21T05:45:26.160Z,0
2017-02-21T05:46:26.168Z,0
2017-02-21T05:47:26.109Z,0
2017-02-21T05:48:26.073Z,0
2017-02-21T05:49:26.051Z,0
2017-02-21T05:50:26.051Z,0
2017-02-21T05:51:26.016Z,0
2017-02-21T05:52:25.993Z,0
2017-02-21T05:53:25.961Z,0
2017-02-21T05:54:25.955Z,0
2017-02-21T05:55:25.923Z,0
2017-02-21T05:56:25.904Z,0
2017-02-21T05:57:25.912Z,0
2017-02-21T05:58:25.879Z,0
2017-02-21T05:59:25.843Z,0
2017-02-21T06:00:25.851Z,0
2017-02-21T06:01:25.852Z,5
2017-02-21T06:02:25.802Z,5
2017-02-21T06:03:25.776Z,5
2017-02-21T06:04:25.773Z,5
2017-02-21T06:05:26.179Z,5
2017-02-21T06:06:25.408Z,5
2017-02-21T06:07:25.704Z,10
2017-02-21T06:08:25.703Z,10
2017-02-21T06:09:25.654Z,10
2017-02-21T06:10:25.664Z,10
2017-02-21T06:11:25.630Z,15
2017-02-21T06:12:25.602Z,15
2017-02-21T06:13:25.206Z,15
2017-02-21T06:14:25.199Z,20
2017-02-21T06:15:25.581Z,20
2017-02-21T06:16:25.178Z,20
2017-02-21T06:17:25.152Z,25
2017-02-21T06:18:25.517Z,25
2017-02-21T06:19:25.112Z,30
2017-02-21T06:20:25.460Z,30
2017-02-21T06:21:25.453Z,35
2017-02-21T06:22:25.063Z,35
2017-02-21T06:23:25.022Z,40
2017-02-21T06:24:25.409Z,40
2017-02-21T06:25:25.384Z,45
2017-02-21T06:26:25.386Z,45
2017-02-21T06:27:25.364Z,50
2017-02-21T06:28:25.301Z,55
2017-02-21T06:29:25.316Z,60
2017-02-21T06:30:25.318Z,65
2017-02-21T06:31:25.276Z,70
2017-02-21T06:32:25.289Z,70
2017-02-21T06:33:25.214Z,75
2017-02-21T06:34:25.193Z,85
2017-02-21T06:35:25.211Z,90
2017-02-21T06:36:24.813Z,95
2017-02-21T06:37:25.152Z,105
2017-02-21T06:38:25.133Z,105
2017-02-21T06:39:25.087Z,110
2017-02-21T06:40:25.144Z,115
2017-02-21T06:41:25.088Z,120
2017-02-21T06:42:25.059Z,120
2017-02-21T06:43:25.004Z,125
2017-02-21T06:44:25.035Z,130
2017-02-21T06:45:24.998Z,130
2017-02-21T06:46:24.569Z,135
2017-02-21T06:47:24.963Z,145
2017-02-21T06:48:24.933Z,150
2017-02-21T06:49:24.893Z,160
2017-02-21T06:50:24.906Z,160
2017-02-21T06:51:24.893Z,165
2017-02-21T06:52:24.871Z,160
2017-02-21T06:53:24.829Z,165
2017-02-21T06:54:24.841Z,170
2017-02-21T06:55:24.812Z,175
2017-02-21T06:56:24.782Z,185
2017-02-21T07:02:40.048Z,200
2017-02-21T07:03:10.983Z,195
2017-02-21T07:04:10.971Z,195
2017-02-21T07:05:10.606Z,205
2017-02-21T07:06:10.944Z,215
2017-02-21T07:07:10.885Z,220
2017-02-21T07:08:10.503Z,235
2017-02-21T07:09:10.854Z,240
2017-02-21T07:10:10.478Z,235
2017-02-21T07:11:10.429Z,245
2017-02-21T07:12:10.816Z,260
2017-02-21T07:13:10.806Z,275
2017-02-21T07:14:10.369Z,280
2017-02-21T07:15:10.763Z,285
2017-02-21T07:16:10.731Z,300
2017-02-21T07:17:10.714Z,310
2017-02-21T07:18:10.682Z,295
2017-02-21T07:19:10.738Z,310
2017-02-21T07:20:10.267Z,310
2017-02-21T07:21:10.633Z,310
2017-02-21T07:22:10.242Z,340
2017-02-21T07:23:10.616Z,350
2017-02-21T07:24:10.566Z,375
2017-02-21T07:25:10.193Z,375
2017-02-21T07:26:10.554Z,405
2017-02-21T07:27:10.498Z,400
2017-02-21T07:28:10.120Z,400
2017-02-21T07:29:10.471Z,405
2017-02-21T07:30:10.468Z,425
2017-02-21T07:31:10.459Z,430
2017-02-21T07:32:10.048Z,440
2017-02-21T07:33:10.391Z,430
2017-02-21T07:34:10.015Z,410
2017-02-21T07:35:10.004Z,405
2017-02-21T07:36:10.354Z,430
2017-02-21T07:37:10.318Z,475
2017-02-21T07:38:09.941Z,510
2017-02-21T07:39:10.269Z,510
2017-02-21T07:40:09.887Z,520
2017-02-21T07:41:10.243Z,580
2017-02-21T07:42:09.834Z,605
2017-02-21T07:43:10.256Z,555
2017-02-21T07:44:10.185Z,550
2017-02-21T07:45:10.201Z,545
2017-02-21T07:46:10.167Z,550
2017-02-21T07:47:09.735Z,575
2017-02-21T07:48:10.105Z,585
2017-02-21T07:49:10.107Z,630
2017-02-21T07:50:09.699Z,640
2017-02-21T07:51:09.673Z,655
2017-02-21T07:52:10.058Z,630
2017-02-21T07:53:10.052Z,635
2017-02-21T07:54:10.024Z,635
2017-02-21T07:55:09.995Z,685
2017-02-21T07:56:09.954Z,740
2017-02-21T07:57:09.960Z,785
2017-02-21T07:58:09.540Z,735
2017-02-21T07:59:09.894Z,655
2017-02-21T08:00:09.878Z,645
2017-02-21T08:01:09.477Z,715
2017-02-21T08:02:09.854Z,745
2017-02-21T08:03:09.872Z,740
2017-02-21T08:04:09.827Z,725
2017-02-21T08:05:09.799Z,740
2017-02-21T08:06:09.382Z,775
2017-02-21T08:07:09.801Z,790
2017-02-21T08:08:09.352Z,845
2017-02-21T08:09:09.322Z,875
2017-02-21T08:10:08.959Z,875
2017-02-21T08:11:09.303Z,860
2017-02-21T08:12:09.679Z,860
2017-02-21T08:13:09.621Z,890
2017-02-21T08:14:09.243Z,975
2017-02-21T08:15:09.190Z,920
2017-02-21T08:16:09.214Z,910
2017-02-21T08:17:09.163Z,860
2017-02-21T08:18:09.173Z,845
2017-02-21T08:19:09.156Z,820
2017-02-21T08:20:09.121Z,780
2017-02-21T08:21:09.522Z,780
2017-02-21T08:22:09.472Z,775
2017-02-21T08:23:09.442Z,790
2017-02-21T08:24:09.434Z,815
2017-02-21T08:25:09.455Z,800
2017-02-21T08:26:09.384Z,770
2017-02-21T08:27:08.993Z,750
2017-02-21T08:28:09.355Z,770
2017-02-21T08:29:08.959Z,785
2017-02-21T08:30:08.562Z,795
2017-02-21T08:31:09.340Z,795
2017-02-21T08:32:09.303Z,815
2017-02-21T08:33:08.878Z,840
2017-02-21T08:34:09.226Z,840
2017-02-21T08:35:09.214Z,845
2017-02-21T08:36:09.236Z,860
2017-02-21T08:37:09.170Z,840
2017-02-21T08:38:08.798Z,815
2017-02-21T08:39:09.157Z,805
2017-02-21T08:40:09.131Z,785
2017-02-21T08:41:09.103Z,780
2017-02-21T08:42:09.095Z,790
2017-02-21T08:43:09.077Z,825
2017-02-21T08:44:09.045Z,880
2017-02-21T08:45:09.057Z,930
2017-02-21T08:46:08.998Z,995
2017-02-21T08:47:09.003Z,1075
2017-02-21T08:48:08.991Z,1135
2017-02-21T08:49:08.976Z,1165
2017-02-21T08:50:08.961Z,1200
2017-02-21T08:51:08.946Z,1205
2017-02-21T08:52:08.524Z,1230
2017-02-21T08:53:08.862Z,1215
2017-02-21T08:54:08.849Z,1155
2017-02-21T08:55:08.852Z,1075
2017-02-21T08:56:08.823Z,1070
2017-02-21T08:57:08.798Z,1055
2017-02-21T08:58:08.802Z,1055
2017-02-21T08:59:08.775Z,1055
2017-02-21T09:00:07.982Z,1060
2017-02-21T09:01:08.729Z,1090
2017-02-21T09:02:08.700Z,1125
2017-02-21T09:03:08.302Z,1130
2017-02-21T09:04:08.688Z,1115
2017-02-21T09:05:08.633Z,1085
2017-02-21T09:06:08.608Z,1050
2017-02-21T09:07:08.613Z,1030
2017-02-21T09:08:08.579Z,990
2017-02-21T09:09:08.605Z,960
2017-02-21T09:10:08.183Z,920
2017-02-21T09:11:08.516Z,885
2017-02-21T09:12:08.508Z,870
2017-02-21T09:13:08.495Z,870
2017-02-21T09:14:08.508Z,870
2017-02-21T09:15:08.484Z,860
2017-02-21T09:16:08.459Z,845
2017-02-21T09:17:08.418Z,815
2017-02-21T09:18:08.423Z,820
2017-02-21T09:19:08.356Z,815
2017-02-21T09:20:07.960Z,830
2017-02-21T09:21:08.338Z,850
2017-02-21T09:22:08.319Z,880
2017-02-21T09:23:08.332Z,935
2017-02-21T09:24:07.899Z,995
2017-02-21T09:25:07.912Z,1045
2017-02-21T09:26:08.264Z,1005
2017-02-21T09:27:07.821Z,990
2017-02-21T09:28:08.186Z,1000
2017-02-21T09:29:08.179Z,1050
2017-02-21T09:30:07.793Z,1120
2017-02-21T09:31:07.771Z,1225
2017-02-21T09:32:08.120Z,1335
2017-02-21T09:33:08.115Z,1400
2017-02-21T09:34:07.305Z,1370
2017-02-21T09:35:08.048Z,1310
2017-02-21T09:36:07.310Z,1260
2017-02-21T09:37:08.026Z,1270
2017-02-21T09:38:07.628Z,1280
2017-02-21T09:39:08.003Z,1240
2017-02-21T09:40:07.978Z,1175
2017-02-21T09:41:07.993Z,1130
2017-02-21T09:42:07.977Z,1095
2017-02-21T09:43:07.937Z,1070
2017-02-21T09:44:07.516Z,1075
2017-02-21T09:45:07.922Z,1105
2017-02-21T09:46:07.497Z,1085
2017-02-21T09:47:07.848Z,1060
2017-02-21T09:48:07.836Z,1010
2017-02-21T09:49:07.422Z,960
2017-02-21T09:50:07.402Z,900
2017-02-21T09:51:07.404Z,870
2017-02-21T09:52:07.763Z,870
2017-02-21T09:53:07.720Z,900
2017-02-21T09:54:07.725Z,930
2017-02-21T09:55:07.699Z,1005
2017-02-21T09:56:07.695Z,1015
2017-02-21T09:57:07.311Z,1000
2017-02-21T09:58:07.263Z,990
2017-02-21T09:59:07.224Z,975
2017-02-21T10:00:07.603Z,980
2017-02-21T10:01:07.193Z,1025
2017-02-21T10:02:07.575Z,1105
2017-02-21T10:03:07.195Z,1135
2017-02-21T10:04:07.139Z,1145
2017-02-21T10:05:06.368Z,1185
2017-02-21T10:06:07.529Z,1205
2017-02-21T10:07:07.495Z,1185
2017-02-21T10:08:06.688Z,1155
2017-02-21T10:09:06.688Z,1140
2017-02-21T10:10:07.400Z,1120
2017-02-21T10:11:07.423Z,1090
2017-02-21T10:12:07.410Z,1065
2017-02-21T10:13:06.611Z,1055
2017-02-21T10:14:07.386Z,1020
2017-02-21T10:15:07.345Z,1015
2017-02-21T10:16:06.978Z,1010
2017-02-21T10:17:07.317Z,1015
2017-02-21T10:18:07.295Z,1010
2017-02-21T10:19:07.287Z,1025
2017-02-21T10:20:07.248Z,1060
2017-02-21T10:21:07.207Z,1070
2017-02-21T10:22:07.226Z,1080
2017-02-21T10:23:07.205Z,1085
2017-02-21T10:24:07.183Z,1070
2017-02-21T10:25:07.150Z,1060
2017-02-21T10:26:06.758Z,1040
2017-02-21T10:27:07.121Z,1040
2017-02-21T10:28:06.731Z,1025
2017-02-21T10:29:06.703Z,1020
2017-02-21T10:30:06.680Z,995
2017-02-21T10:31:06.636Z,990
2017-02-21T10:32:06.648Z,975
2017-02-21T10:33:06.605Z,1000
2017-02-21T10:34:06.603Z,1030
2017-02-21T10:35:06.949Z,995
2017-02-21T10:36:06.944Z,980
2017-02-21T10:37:06.537Z,990
2017-02-21T10:38:06.909Z,1010
2017-02-21T10:39:06.898Z,1030
2017-02-21T10:40:06.489Z,1045
2017-02-21T10:41:06.867Z,1060
2017-02-21T10:42:06.472Z,1105
2017-02-21T10:43:06.445Z,1085
2017-02-21T10:44:06.795Z,1080
2017-02-21T10:45:06.774Z,1075
2017-02-21T10:46:06.394Z,1075
2017-02-21T10:47:06.398Z,1090
2017-02-21T10:48:06.730Z,1050
2017-02-21T10:49:06.706Z,1035
2017-02-21T10:50:06.730Z,1045
2017-02-21T10:51:06.703Z,1075
2017-02-21T10:52:06.651Z,1140
2017-02-21T10:53:06.672Z,1190
2017-02-21T10:54:06.247Z,1190
2017-02-21T10:55:06.604Z,1185
2017-02-21T10:56:06.591Z,1160
2017-02-21T10:57:06.578Z,1160
2017-02-21T10:58:06.559Z,1185
2017-02-21T10:59:06.516Z,1200
2017-02-21T11:00:06.503Z,1220
2017-02-21T11:01:06.523Z,1245
2017-02-21T11:02:06.481Z,1255
2017-02-21T11:03:06.494Z,1220
2017-02-21T11:04:06.474Z,1185
2017-02-21T11:05:06.056Z,1125
2017-02-21T11:06:06.472Z,1070
2017-02-21T11:07:06.012Z,1010
2017-02-21T11:08:05.987Z,990
2017-02-21T11:09:06.360Z,985
2017-02-21T11:10:06.332Z,970
2017-02-21T11:11:05.962Z,980
2017-02-21T11:12:06.359Z,975
2017-02-21T11:13:05.910Z,1025
2017-02-21T11:14:06.274Z,1045
2017-02-21T11:15:06.243Z,1030
2017-02-21T11:16:05.849Z,1040
2017-02-21T11:17:06.225Z,1050
2017-02-21T11:18:06.209Z,1035
2017-02-21T11:19:06.197Z,1025
2017-02-21T11:20:05.764Z,1045
2017-02-21T11:21:06.151Z,1080
2017-02-21T11:22:05.742Z,1095
2017-02-21T11:23:05.720Z,1140
2017-02-21T11:24:05.702Z,1155
2017-02-21T11:25:05.658Z,1125
2017-02-21T11:26:05.638Z,1100
2017-02-21T11:27:05.643Z,1065
2017-02-21T11:28:05.623Z,1030
2017-02-21T11:29:06.008Z,970
2017-02-21T11:30:05.206Z,935
2017-02-21T11:31:05.929Z,940
2017-02-21T11:32:05.935Z,950
2017-02-21T11:33:05.924Z,1010
2017-02-21T11:34:05.506Z,1050
2017-02-21T11:35:05.495Z,1060
2017-02-21T11:36:05.870Z,1065
2017-02-21T11:37:05.056Z,1085
2017-02-21T11:38:05.820Z,1130
2017-02-21T11:39:05.794Z,1120
2017-02-21T11:40:05.391Z,1050
2017-02-21T11:41:05.776Z,1030
2017-02-21T11:42:05.760Z,1045
2017-02-21T11:43:05.356Z,1065
2017-02-21T11:44:05.348Z,1040
2017-02-21T11:45:05.700Z,990
2017-02-21T11:46:05.670Z,1035
2017-02-21T11:47:05.254Z,1135
2017-02-21T11:48:05.632Z,1095
2017-02-21T11:49:05.614Z,1070
2017-02-21T11:50:05.630Z,1110
2017-02-21T11:51:05.590Z,1190
2017-02-21T11:52:05.204Z,1190
2017-02-21T11:53:04.809Z,1150
2017-02-21T11:54:05.149Z,1085
2017-02-21T11:55:05.155Z,1055
2017-02-21T11:56:05.109Z,1000
2017-02-21T11:57:05.490Z,1020
2017-02-21T11:58:05.076Z,1065
2017-02-21T11:59:04.692Z,1090
2017-02-21T12:00:05.049Z,1045
2017-02-21T12:01:05.431Z,1050
2017-02-21T12:02:05.407Z,1025
2017-02-21T12:03:04.973Z,1040
2017-02-21T12:04:05.359Z,990
2017-02-21T12:05:05.373Z,960
2017-02-21T12:06:05.314Z,995
2017-02-21T12:07:05.307Z,1005
2017-02-21T12:08:05.250Z,1000
2017-02-21T12:09:05.250Z,965
2017-02-21T12:10:04.876Z,975
2017-02-21T12:11:05.231Z,1065
2017-02-21T12:12:05.219Z,1260
2017-02-21T12:13:05.200Z,1305
2017-02-21T12:14:05.162Z,1170
2017-02-21T12:15:04.781Z,1095
2017-02-21T12:16:05.128Z,1065
2017-02-21T12:17:05.138Z,1000
2017-02-21T12:18:05.120Z,1030
2017-02-21T12:19:05.077Z,1020
2017-02-21T12:20:05.075Z,1050
2017-02-21T12:21:05.048Z,1225
2017-02-21T12:22:05.013Z,1235
2017-02-21T12:23:04.604Z,1120
2017-02-21T12:24:04.620Z,1225
2017-02-21T12:25:04.986Z,1140
2017-02-21T12:26:04.566Z,1130
2017-02-21T12:27:04.168Z,1220
2017-02-21T12:28:04.160Z,1230
2017-02-21T12:29:04.871Z,1240
2017-02-21T12:30:04.499Z,1230
2017-02-21T12:31:04.862Z,1270
2017-02-21T12:32:04.842Z,1275
2017-02-21T12:33:04.441Z,1340
2017-02-21T12:34:04.789Z,1105
2017-02-21T12:35:04.395Z,1255
2017-02-21T12:36:04.793Z,1070
2017-02-21T12:37:04.733Z,1100
2017-02-21T12:38:04.729Z,1155
2017-02-21T12:39:04.713Z,1085
2017-02-21T12:40:04.687Z,1060
2017-02-21T12:41:04.688Z,1105
2017-02-21T12:42:04.665Z,995
2017-02-21T12:43:04.664Z,920
2017-02-21T12:44:04.665Z,1125
2017-02-21T12:45:04.615Z,1150
2017-02-21T12:46:04.629Z,1200
2017-02-21T12:47:04.566Z,1135
2017-02-21T12:48:04.572Z,1070
2017-02-21T12:49:04.146Z,1300
2017-02-21T12:50:04.545Z,1265
2017-02-21T12:51:04.495Z,1235
2017-02-21T12:52:04.507Z,1225
2017-02-21T12:53:04.088Z,1165
2017-02-21T12:54:04.434Z,1150
2017-02-21T12:55:04.026Z,1035
2017-02-21T12:56:04.013Z,1010
2017-02-21T12:57:04.416Z,965
2017-02-21T12:58:03.989Z,950
2017-02-21T12:59:03.994Z,985
2017-02-21T13:00:04.326Z,990
2017-02-21T13:01:04.338Z,1110
2017-02-21T13:02:03.914Z,1210
2017-02-21T13:03:03.898Z,1125
2017-02-21T13:04:04.250Z,1085
2017-02-21T13:05:04.259Z,1090
2017-02-21T13:06:03.826Z,1105
2017-02-21T13:07:03.836Z,1155
2017-02-21T13:08:03.805Z,1180
2017-02-21T13:09:03.764Z,1130
2017-02-21T13:10:04.186Z,1140
2017-02-21T13:11:03.779Z,1120
2017-02-21T13:12:03.729Z,1025
2017-02-21T13:13:03.716Z,1015
2017-02-21T13:14:03.679Z,1030
2017-02-21T13:15:03.715Z,1010
2017-02-21T13:16:03.653Z,1120
2017-02-21T13:17:03.644Z,1040
2017-02-21T13:18:04.010Z,1030
2017-02-21T13:19:04.015Z,1060
2017-02-21T13:20:03.969Z,1090
2017-02-21T13:21:03.592Z,1075
2017-02-21T13:22:03.947Z,1070
2017-02-21T13:23:03.918Z,1105
2017-02-21T13:24:03.143Z,1045
2017-02-21T13:25:03.548Z,1065
2017-02-21T13:26:03.918Z,1010
2017-02-21T13:27:03.867Z,1015
2017-02-21T13:28:03.816Z,1025
2017-02-21T13:29:03.847Z,980
2017-02-21T13:30:03.401Z,1000
2017-02-21T13:31:03.011Z,945
2017-02-21T13:32:03.764Z,940
2017-02-21T13:33:03.729Z,935
2017-02-21T13:34:03.353Z,945
2017-02-21T13:35:03.695Z,995
2017-02-21T13:36:03.690Z,1025
2017-02-21T13:37:03.687Z,1250
2017-02-21T13:38:03.660Z,1385
2017-02-21T13:39:03.625Z,1195
2017-02-21T13:40:03.226Z,1190
2017-02-21T13:41:03.579Z,1280
2017-02-21T13:42:02.825Z,1500
2017-02-21T13:43:03.178Z,1450
2017-02-21T13:44:03.533Z,1310
2017-02-21T13:45:03.134Z,1245
2017-02-21T13:46:03.516Z,1225
2017-02-21T13:47:02.701Z,1165
2017-02-21T13:48:03.059Z,1085
2017-02-21T13:49:03.049Z,1115
2017-02-21T13:50:03.058Z,1105
2017-02-21T13:51:03.033Z,1125
2017-02-21T13:52:03.022Z,1235
2017-02-21T13:53:03.008Z,1380
2017-02-21T13:54:02.991Z,1295
2017-02-21T13:55:03.353Z,1170
2017-02-21T13:56:03.331Z,1210
2017-02-21T13:57:03.336Z,1190
2017-02-21T13:58:03.277Z,1125
2017-02-21T13:59:03.286Z,1220
2017-02-21T14:00:03.232Z,1245
2017-02-21T14:01:02.038Z,1185
2017-02-21T14:02:02.870Z,1065
2017-02-21T14:04:03.194Z,1150
2017-02-21T14:05:01.488Z,1130
2017-02-21T14:06:03.134Z,1085
2017-02-21T14:07:03.102Z,1090
2017-02-21T14:08:03.096Z,1050
2017-02-21T14:09:03.072Z,975